Time;durP1;ratioP1;P1;durP2;ratioP2;P2;SDS_P1;SDS_P2;PMS_P1;PMS_P2;Temp;Humidity;BMP_temperature;BMP_pressure;BME280_temperature;BME280_humidity;BME280_pressure;Samples;Min_cycle;Max_cycle;Signal;HPM_P1;HPM_P2
2021/12/22 00:00:13;;;;;;;24.95;11.07;;;;;;;;;;5030675;28;20036;-84
2021/12/22 00:02:46;;;;;;;27.70;10.97;;;;;;;;;;5034068;28;20064;-85
2021/12/22 00:05:21;;;;;;;24.23;10.65;;;;;;;;;;5037649;28;21014;-84
2021/12/22 00:07:46;;;;;;;26.95;11.32;;;;;;;;;;5046439;28;20032;-84
2021/12/22 00:10:13;;;;;;;22.40;10.73;;;;;;;;;;5039096;28;20041;-85
2021/12/22 00:12:38;;;;;;;21.70;9.93;;;;;;;;;;5038883;28;20123;-84
2021/12/22 00:15:05;;;;;;;28.55;10.57;;;;;;;;;;5036661;28;20120;-84
2021/12/22 00:17:30;;;;;;;23.27;10.23;;;;;;;;;;5042853;28;20049;-84
2021/12/22 00:19:56;;;;;;;26.20;11.18;;;;;;;;;;5042399;28;20111;-85
2021/12/22 00:22:21;;;;;;;28.67;12.05;;;;;;;;;;5036450;28;20041;-84
2021/12/22 00:24:47;;;;;;;27.88;11.32;;;;;;;;;;5036121;28;20822;-84
2021/12/22 00:27:12;;;;;;;24.45;10.68;;;;;;;;;;5039794;28;20414;-84
2021/12/22 00:29:38;;;;;;;22.33;10.80;;;;;;;;;;5043774;28;20039;-84
2021/12/22 00:32:13;;;;;;;24.73;10.13;;;;;;;;;;5043417;28;20053;-85
2021/12/22 00:34:49;;;;;;;21.35;10.70;;;;;;;;;;5040979;28;20507;-85
2021/12/22 00:37:17;;;;;;;26.67;10.95;;;;;;;;;;5037358;28;20032;-85
2021/12/22 00:39:47;;;;;;;21.95;10.80;;;;;;;;;;5030275;28;20067;-84
2021/12/22 00:42:13;;;;;;;23.35;10.40;;;;;;;;;;5034971;28;20072;-84
2021/12/22 00:44:41;;;;;;;18.60;8.80;;;;;;;;;;5039671;28;20040;-85
2021/12/22 00:47:07;;;;;;;22.02;9.63;;;;;;;;;;5052004;28;20036;-85
2021/12/22 00:49:33;;;;;;;25.00;10.23;;;;;;;;;;5057811;28;20033;-84
2021/12/22 00:51:58;;;;;;;24.00;9.63;;;;;;;;;;5053209;28;20037;-84
2021/12/22 00:54:24;;;;;;;20.92;8.88;;;;;;;;;;5051327;28;20051;-85
2021/12/22 00:56:49;;;;;;;20.55;8.98;;;;;;;;;;5047176;28;20119;-84
2021/12/22 00:59:17;;;;;;;20.50;8.48;;;;;;;;;;5061165;28;20100;-85
2021/12/22 01:01:42;;;;;;;22.60;9.38;;;;;;;;;;5050462;28;20521;-84
2021/12/22 01:04:07;;;;;;;23.65;8.82;;;;;;;;;;5036809;28;20041;-85
2021/12/22 01:06:33;;;;;;;23.58;8.88;;;;;;;;;;5038018;28;20087;-85
2021/12/22 01:08:58;;;;;;;17.77;8.07;;;;;;;;;;5033652;28;20037;-85
2021/12/22 01:11:24;;;;;;;19.08;8.95;;;;;;;;;;5037595;28;20060;-85
2021/12/22 01:13:49;;;;;;;18.58;8.25;;;;;;;;;;5042055;28;20052;-85
2021/12/22 01:16:14;;;;;;;22.27;8.77;;;;;;;;;;5061739;28;20063;-85
2021/12/22 01:18:40;;;;;;;21.60;9.35;;;;;;;;;;5050895;28;20125;-85
2021/12/22 01:21:25;;;;;;;20.92;8.73;;;;;;;;;;5038550;28;20044;-85
2021/12/22 01:24:14;;;;;;;21.38;8.05;;;;;;;;;;5036875;28;20529;-85
2021/12/22 01:26:45;;;;;;;19.25;8.25;;;;;;;;;;5030811;28;20048;-85
2021/12/22 01:29:12;;;;;;;17.83;6.97;;;;;;;;;;5045961;28;20017;-85
2021/12/22 01:31:39;;;;;;;20.30;7.75;;;;;;;;;;5051466;28;20041;-85
2021/12/22 01:34:04;;;;;;;18.50;8.50;;;;;;;;;;5044413;28;20086;-86
2021/12/22 01:36:30;;;;;;;18.52;8.40;;;;;;;;;;5037484;28;20037;-85
2021/12/22 01:38:55;;;;;;;18.10;8.00;;;;;;;;;;5042107;28;20044;-84
2021/12/22 01:41:20;;;;;;;17.02;7.18;;;;;;;;;;5039553;28;20526;-85
2021/12/22 01:43:47;;;;;;;16.88;7.88;;;;;;;;;;5038877;28;20025;-85
2021/12/22 01:49:20;;;;;;;19.97;8.30;;;;;;;;;;5018063;28;20041;-85
2021/12/22 01:52:06;;;;;;;17.75;7.55;;;;;;;;;;5001022;28;20071;-85
2021/12/22 01:54:47;;;;;;;14.63;7.55;;;;;;;;;;5012938;28;20434;-85
2021/12/22 01:57:14;;;;;;;15.70;6.63;;;;;;;;;;5032948;28;20553;-85
2021/12/22 01:59:41;;;;;;;16.70;7.80;;;;;;;;;;5022160;28;20033;-85
2021/12/22 02:02:09;;;;;;;16.10;7.63;;;;;;;;;;5022591;28;20746;-85
2021/12/22 02:04:37;;;;;;;17.90;7.60;;;;;;;;;;5023275;28;20033;-85
2021/12/22 02:07:03;;;;;;;17.25;7.10;;;;;;;;;;5036745;28;20049;-85
2021/12/22 02:11:54;;;;;;;20.13;8.13;;;;;;;;;;5038336;28;20152;-84
2021/12/22 02:14:19;;;;;;;16.80;6.70;;;;;;;;;;5034754;28;20037;-85
2021/12/22 02:16:45;;;;;;;15.70;6.88;;;;;;;;;;5033666;28;20029;-85
2021/12/22 02:19:11;;;;;;;18.90;6.90;;;;;;;;;;5018535;28;20033;-85
2021/12/22 02:21:46;;;;;;;17.38;7.68;;;;;;;;;;5039794;28;20030;-85
2021/12/22 02:24:12;;;;;;;22.20;7.47;;;;;;;;;;5017964;28;20033;-85
2021/12/22 02:26:43;;;;;;;19.92;7.57;;;;;;;;;;5034180;28;20038;-84
2021/12/22 02:29:19;;;;;;;15.85;7.13;;;;;;;;;;5014956;28;20411;-85
2021/12/22 02:31:50;;;;;;;17.13;7.20;;;;;;;;;;5041918;28;20059;-85
2021/12/22 02:34:16;;;;;;;17.30;7.00;;;;;;;;;;5022287;28;20744;-85
2021/12/22 02:36:43;;;;;;;18.65;7.22;;;;;;;;;;5020174;28;20137;-85
2021/12/22 02:39:08;;;;;;;20.42;7.65;;;;;;;;;;5027172;28;20048;-85
2021/12/22 02:41:37;;;;;;;15.25;7.03;;;;;;;;;;5018257;28;20041;-84
2021/12/22 02:44:03;;;;;;;14.35;7.15;;;;;;;;;;5003851;28;20044;-84
2021/12/22 02:46:34;;;;;;;18.58;6.75;;;;;;;;;;5016976;28;20073;-84
2021/12/22 02:49:02;;;;;;;21.38;7.47;;;;;;;;;;5005716;28;20041;-85
2021/12/22 02:51:28;;;;;;;17.83;7.28;;;;;;;;;;5021527;28;20880;-84
2021/12/22 02:54:29;;;;;;;19.75;7.82;;;;;;;;;;5017738;28;20061;-84
2021/12/22 03:02:17;;;;;;;17.83;7.22;;;;;;;;;;4981345;28;20041;-85
2021/12/22 03:04:50;;;;;;;17.75;7.32;;;;;;;;;;5041022;28;20033;-85
2021/12/22 03:07:18;;;;;;;12.45;6.57;;;;;;;;;;5032668;28;20576;-84
2021/12/22 03:09:43;;;;;;;16.40;7.82;;;;;;;;;;5013310;28;20615;-84
2021/12/22 03:12:12;;;;;;;13.60;6.85;;;;;;;;;;5014510;28;20042;-84
2021/12/22 03:14:37;;;;;;;15.65;7.32;;;;;;;;;;5011976;28;20037;-84
2021/12/22 03:17:03;;;;;;;14.38;6.82;;;;;;;;;;5013859;28;20029;-84
2021/12/22 03:19:32;;;;;;;14.45;7.03;;;;;;;;;;4993784;28;20022;-84
2021/12/22 03:22:03;;;;;;;15.43;6.90;;;;;;;;;;5007145;28;20058;-84
2021/12/22 03:24:31;;;;;;;16.20;7.45;;;;;;;;;;5033068;28;20494;-84
2021/12/22 03:27:00;;;;;;;11.80;6.28;;;;;;;;;;5041644;28;20049;-84
2021/12/22 03:29:26;;;;;;;14.57;7.60;;;;;;;;;;5044257;28;20132;-84
2021/12/22 03:31:51;;;;;;;13.00;6.70;;;;;;;;;;5037397;28;20112;-84
2021/12/22 03:34:17;;;;;;;15.30;6.95;;;;;;;;;;5041274;28;20037;-84
2021/12/22 03:36:43;;;;;;;17.08;7.32;;;;;;;;;;5045158;28;20140;-84
2021/12/22 03:39:10;;;;;;;15.27;7.65;;;;;;;;;;5039290;28;20037;-83
2021/12/22 03:41:35;;;;;;;19.20;7.90;;;;;;;;;;5039818;28;20731;-84
2021/12/22 03:44:02;;;;;;;17.77;7.57;;;;;;;;;;5039746;28;20552;-85
2021/12/22 03:46:27;;;;;;;20.02;7.43;;;;;;;;;;5039021;28;20047;-84
2021/12/22 03:48:53;;;;;;;11.32;6.03;;;;;;;;;;5039386;28;20033;-84
2021/12/22 03:51:18;;;;;;;18.20;7.22;;;;;;;;;;5041918;28;20037;-85
2021/12/22 03:53:44;;;;;;;18.23;7.25;;;;;;;;;;5039329;28;20135;-84
2021/12/22 03:56:09;;;;;;;15.70;6.80;;;;;;;;;;5034546;28;20117;-84
2021/12/22 03:58:35;;;;;;;14.27;6.88;;;;;;;;;;5045758;28;20494;-84
2021/12/22 04:01:00;;;;;;;13.35;5.72;;;;;;;;;;5036786;28;20084;-84
2021/12/22 04:03:30;;;;;;;11.98;6.28;;;;;;;;;;5041129;28;20081;-84
2021/12/22 04:05:56;;;;;;;19.23;7.05;;;;;;;;;;5041240;28;20033;-85
2021/12/22 04:08:21;;;;;;;14.50;6.95;;;;;;;;;;5043400;28;20033;-85
2021/12/22 04:10:48;;;;;;;15.52;6.47;;;;;;;;;;5041104;28;20121;-84
2021/12/22 04:13:14;;;;;;;16.13;7.32;;;;;;;;;;5045923;28;20052;-84
2021/12/22 04:15:40;;;;;;;15.32;6.28;;;;;;;;;;5046379;28;20418;-83
2021/12/22 04:18:05;;;;;;;18.70;8.02;;;;;;;;;;5042709;28;20033;-84
2021/12/22 04:20:31;;;;;;;16.08;6.68;;;;;;;;;;5044634;28;20538;-85
2021/12/22 04:22:58;;;;;;;16.42;7.05;;;;;;;;;;5043168;28;20494;-84
2021/12/22 04:25:24;;;;;;;18.10;6.95;;;;;;;;;;5044134;28;20045;-84
2021/12/22 04:27:55;;;;;;;13.35;6.68;;;;;;;;;;5042325;28;20056;-85
2021/12/22 04:30:22;;;;;;;15.80;6.95;;;;;;;;;;5039941;28;20056;-84
2021/12/22 04:32:48;;;;;;;17.15;6.93;;;;;;;;;;5046136;28;20037;-85
2021/12/22 04:35:14;;;;;;;16.13;7.18;;;;;;;;;;5044975;28;20494;-85
2021/12/22 04:37:39;;;;;;;17.13;7.10;;;;;;;;;;5045176;28;20052;-84
2021/12/22 04:40:05;;;;;;;20.40;6.57;;;;;;;;;;5040439;28;20064;-85
2021/12/22 04:42:31;;;;;;;14.57;6.88;;;;;;;;;;5047045;28;20045;-84
2021/12/22 04:44:58;;;;;;;15.10;6.78;;;;;;;;;;5044899;28;20477;-85
2021/12/22 04:47:23;;;;;;;15.77;7.13;;;;;;;;;;5012922;28;20680;-85
2021/12/22 04:49:49;;;;;;;15.23;6.90;;;;;;;;;;5021816;28;20029;-85
2021/12/22 04:52:17;;;;;;;15.32;7.13;;;;;;;;;;5016530;28;20439;-85
2021/12/22 04:54:51;;;;;;;22.75;7.43;;;;;;;;;;4993512;28;20060;-85
2021/12/22 04:57:16;;;;;;;12.75;6.63;;;;;;;;;;4996866;28;20088;-85
2021/12/22 04:59:42;;;;;;;16.70;6.85;;;;;;;;;;4990525;28;20038;-85
2021/12/22 05:02:07;;;;;;;17.58;7.35;;;;;;;;;;5001448;28;20033;-86
2021/12/22 05:04:32;;;;;;;18.38;7.80;;;;;;;;;;5024340;28;20037;-86
2021/12/22 05:06:58;;;;;;;15.05;6.22;;;;;;;;;;5023525;28;20041;-86
2021/12/22 05:09:23;;;;;;;14.38;6.82;;;;;;;;;;5019527;28;20041;-86
2021/12/22 05:11:50;;;;;;;15.15;7.00;;;;;;;;;;5025917;28;20039;-86
2021/12/22 05:14:16;;;;;;;14.85;6.20;;;;;;;;;;4995225;28;20026;-86
2021/12/22 05:16:46;;;;;;;17.02;6.80;;;;;;;;;;5025818;28;20055;-87
2021/12/22 05:19:14;;;;;;;13.85;6.90;;;;;;;;;;5010691;28;20623;-87
2021/12/22 05:21:43;;;;;;;16.15;7.32;;;;;;;;;;5010038;28;20522;-86
2021/12/22 05:24:09;;;;;;;18.58;7.90;;;;;;;;;;5041392;28;20036;-87
2021/12/22 05:26:35;;;;;;;16.67;7.45;;;;;;;;;;5044012;28;20583;-87
2021/12/22 05:29:01;;;;;;;18.30;6.93;;;;;;;;;;5029259;28;20025;-87
2021/12/22 05:31:27;;;;;;;15.75;7.45;;;;;;;;;;5017948;28;20034;-87
2021/12/22 05:33:53;;;;;;;14.18;7.10;;;;;;;;;;5019361;28;20052;-87
2021/12/22 05:36:18;;;;;;;15.18;6.72;;;;;;;;;;5017337;28;20045;-88
2021/12/22 05:38:43;;;;;;;21.17;7.57;;;;;;;;;;5039526;28;20105;-88
2021/12/22 05:41:09;;;;;;;13.80;6.85;;;;;;;;;;5041088;28;20020;-87
2021/12/22 05:43:34;;;;;;;16.30;6.85;;;;;;;;;;5042514;28;20032;-88
2021/12/22 05:46:00;;;;;;;21.10;7.65;;;;;;;;;;5042441;28;20046;-88
2021/12/22 05:48:27;;;;;;;18.23;7.55;;;;;;;;;;5015397;28;20045;-88
2021/12/22 05:50:57;;;;;;;15.10;7.45;;;;;;;;;;5027206;28;20048;-88
2021/12/22 05:53:24;;;;;;;16.55;7.55;;;;;;;;;;5026596;28;20071;-88
2021/12/22 05:55:49;;;;;;;18.42;7.50;;;;;;;;;;5013275;28;20017;-88
2021/12/22 05:58:15;;;;;;;19.92;7.75;;;;;;;;;;5028272;28;20051;-88
2021/12/22 06:00:40;;;;;;;14.32;6.93;;;;;;;;;;5029643;28;20119;-88
2021/12/22 06:03:06;;;;;;;16.77;7.28;;;;;;;;;;5022082;28;20391;-89
2021/12/22 06:05:31;;;;;;;20.17;7.65;;;;;;;;;;5017503;28;20427;-87
2021/12/22 06:07:56;;;;;;;18.02;8.25;;;;;;;;;;5018589;28;20025;-88
2021/12/22 06:10:22;;;;;;;17.10;7.43;;;;;;;;;;5041324;28;20045;-89
2021/12/22 06:12:47;;;;;;;15.75;7.13;;;;;;;;;;4996557;28;20096;-88
2021/12/22 06:15:12;;;;;;;13.98;6.53;;;;;;;;;;5001364;28;20394;-88
2021/12/22 06:17:38;;;;;;;17.75;7.65;;;;;;;;;;5008575;28;20026;-88
2021/12/22 06:20:04;;;;;;;18.80;7.93;;;;;;;;;;4992534;28;20080;-88
2021/12/22 06:22:31;;;;;;;18.42;8.38;;;;;;;;;;5000570;28;20025;-88
2021/12/22 06:24:57;;;;;;;17.40;7.50;;;;;;;;;;5002733;28;20030;-88
2021/12/22 06:27:22;;;;;;;17.80;7.38;;;;;;;;;;5017705;28;20145;-88
2021/12/22 06:29:48;;;;;;;17.58;7.68;;;;;;;;;;5019340;28;20037;-87
2021/12/22 06:32:13;;;;;;;19.65;8.02;;;;;;;;;;5001998;28;20044;-88
2021/12/22 06:34:38;;;;;;;19.95;9.00;;;;;;;;;;5028675;28;20045;-88
2021/12/22 06:37:04;;;;;;;23.65;10.02;;;;;;;;;;5002619;28;20069;-87
2021/12/22 06:39:29;;;;;;;23.35;9.90;;;;;;;;;;5024361;28;20044;-88
2021/12/22 06:41:55;;;;;;;21.95;8.73;;;;;;;;;;5011804;28;20037;-85
2021/12/22 06:44:23;;;;;;;18.17;7.43;;;;;;;;;;5009151;28;20053;-85
2021/12/22 06:46:49;;;;;;;18.25;7.97;;;;;;;;;;5041638;28;20504;-84
2021/12/22 06:49:14;;;;;;;22.38;8.20;;;;;;;;;;5038646;28;20533;-86
2021/12/22 06:51:40;;;;;;;17.48;7.65;;;;;;;;;;5044124;28;20091;-85
2021/12/22 06:54:06;;;;;;;19.73;8.00;;;;;;;;;;5041759;28;20045;-80
2021/12/22 06:56:31;;;;;;;20.15;7.60;;;;;;;;;;5043315;28;20150;-79
2021/12/22 06:58:57;;;;;;;15.93;7.43;;;;;;;;;;5034640;28;20033;-78
2021/12/22 07:01:23;;;;;;;16.55;7.95;;;;;;;;;;5035843;28;20076;-77
2021/12/22 07:03:49;;;;;;;21.92;8.07;;;;;;;;;;5035769;28;20037;-81
2021/12/22 07:06:15;;;;;;;24.08;8.15;;;;;;;;;;5036668;28;20557;-81
2021/12/22 07:08:41;;;;;;;25.70;9.05;;;;;;;;;;5031929;28;20080;-72
2021/12/22 07:11:06;;;;;;;26.75;10.68;;;;;;;;;;5033711;28;20029;-69
2021/12/22 07:13:32;;;;;;;21.17;9.20;;;;;;;;;;5029111;28;20033;-70
2021/12/22 07:15:57;;;;;;;27.63;10.15;;;;;;;;;;5054479;28;20036;-73
2021/12/22 07:18:23;;;;;;;22.45;8.70;;;;;;;;;;5049770;28;20037;-72
2021/12/22 07:20:48;;;;;;;24.70;9.27;;;;;;;;;;5055722;28;20462;-72
2021/12/22 07:23:13;;;;;;;20.00;8.05;;;;;;;;;;5059823;28;20032;-72
2021/12/22 07:25:39;;;;;;;17.98;8.07;;;;;;;;;;5061312;28;20077;-73
2021/12/22 07:28:04;;;;;;;21.58;9.23;;;;;;;;;;5054353;28;20194;-72
2021/12/22 07:30:30;;;;;;;27.50;8.95;;;;;;;;;;5052490;28;20112;-72
2021/12/22 07:32:56;;;;;;;20.25;9.68;;;;;;;;;;5054441;28;20040;-72
2021/12/22 07:35:30;;;;;;;21.83;9.10;;;;;;;;;;5058236;28;20099;-72
2021/12/22 07:38:24;;;;;;;24.30;7.97;;;;;;;;;;5058966;28;20024;-72
2021/12/22 07:40:51;;;;;;;21.77;8.50;;;;;;;;;;5029095;28;20052;-72
2021/12/22 07:43:17;;;;;;;23.77;9.00;;;;;;;;;;5055202;28;20060;-72
2021/12/22 07:45:43;;;;;;;23.60;9.65;;;;;;;;;;5051806;28;20537;-72
2021/12/22 07:48:08;;;;;;;22.63;9.30;;;;;;;;;;5037819;28;20029;-72
2021/12/22 07:50:33;;;;;;;25.02;9.10;;;;;;;;;;5038825;28;20128;-72
2021/12/22 07:52:59;;;;;;;22.20;8.73;;;;;;;;;;5014496;28;20040;-72
2021/12/22 07:55:24;;;;;;;21.38;8.77;;;;;;;;;;5037387;28;20031;-72
2021/12/22 07:57:49;;;;;;;24.65;9.45;;;;;;;;;;5036908;28;20675;-72
2021/12/22 08:00:15;;;;;;;25.80;10.18;;;;;;;;;;5037237;28;20037;-72
2021/12/22 08:02:41;;;;;;;25.83;11.40;;;;;;;;;;5032546;28;20112;-72
2021/12/22 08:05:07;;;;;;;28.80;10.38;;;;;;;;;;5030738;28;20579;-71
2021/12/22 08:07:32;;;;;;;22.15;8.70;;;;;;;;;;5032986;28;20075;-71
2021/12/22 08:09:58;;;;;;;23.30;9.48;;;;;;;;;;5032511;28;20653;-72
2021/12/22 08:12:23;;;;;;;28.92;10.90;;;;;;;;;;5030610;28;20041;-72
2021/12/22 08:14:49;;;;;;;29.65;10.43;;;;;;;;;;5031961;28;20033;-73
2021/12/22 08:17:14;;;;;;;29.67;10.77;;;;;;;;;;5029015;28;20044;-74
2021/12/22 08:19:40;;;;;;;27.30;11.82;;;;;;;;;;5041712;28;20039;-74
2021/12/22 08:22:07;;;;;;;28.40;12.07;;;;;;;;;;5031522;28;20095;-72
2021/12/22 08:24:33;;;;;;;30.40;11.23;;;;;;;;;;5037960;28;20045;-73
2021/12/22 08:26:58;;;;;;;30.15;11.13;;;;;;;;;;5030498;28;20463;-73
2021/12/22 08:29:25;;;;;;;24.83;10.73;;;;;;;;;;5034620;28;20114;-74
2021/12/22 08:31:51;;;;;;;24.67;10.50;;;;;;;;;;5039809;28;20090;-72
2021/12/22 08:34:23;;;;;;;27.88;10.85;;;;;;;;;;5041580;28;20036;-72
2021/12/22 08:39:32;;;;;;;20.95;9.32;;;;;;;;;;5021952;28;20080;-72
2021/12/22 08:41:58;;;;;;;29.42;10.23;;;;;;;;;;5021370;28;20120;-72
2021/12/22 08:44:25;;;;;;;25.38;9.32;;;;;;;;;;4999490;28;20052;-72
2021/12/22 08:46:51;;;;;;;25.08;10.10;;;;;;;;;;5026337;28;20056;-73
2021/12/22 08:49:19;;;;;;;29.50;12.07;;;;;;;;;;5034130;28;20041;-71
2021/12/22 08:51:44;;;;;;;29.05;11.02;;;;;;;;;;5042410;28;20080;-72
2021/12/22 08:54:10;;;;;;;27.83;10.52;;;;;;;;;;5042732;28;20141;-72
2021/12/22 08:56:36;;;;;;;26.00;10.40;;;;;;;;;;5041724;28;20045;-72
2021/12/22 08:59:03;;;;;;;31.42;11.23;;;;;;;;;;5035083;28;20025;-72
2021/12/22 09:01:29;;;;;;;22.13;9.88;;;;;;;;;;5033450;28;20151;-72
2021/12/22 09:03:55;;;;;;;24.00;10.35;;;;;;;;;;5031258;28;20072;-73
2021/12/22 09:06:20;;;;;;;23.25;9.60;;;;;;;;;;5037118;28;20041;-72
2021/12/22 09:08:45;;;;;;;25.88;10.70;;;;;;;;;;5037146;28;20051;-72
2021/12/22 09:11:12;;;;;;;35.35;12.95;;;;;;;;;;5039286;28;20105;-72
2021/12/22 09:13:39;;;;;;;28.40;12.63;;;;;;;;;;5032336;28;20032;-75
2021/12/22 09:16:06;;;;;;;30.63;11.95;;;;;;;;;;5034750;28;20041;-75
2021/12/22 09:18:31;;;;;;;25.75;10.32;;;;;;;;;;5035446;28;20509;-74
2021/12/22 09:20:57;;;;;;;30.02;11.35;;;;;;;;;;5039608;28;20517;-74
2021/12/22 09:23:23;;;;;;;25.80;10.27;;;;;;;;;;5033006;28;20102;-80
2021/12/22 09:25:49;;;;;;;22.85;10.32;;;;;;;;;;5040895;28;20029;-75
2021/12/22 09:28:15;;;;;;;29.02;11.13;;;;;;;;;;5028234;28;20048;-70
2021/12/22 09:30:41;;;;;;;25.20;10.18;;;;;;;;;;5036389;28;20036;-73
2021/12/22 09:33:11;;;;;;;19.92;9.40;;;;;;;;;;5037948;28;20041;-74
2021/12/22 09:35:38;;;;;;;22.38;9.95;;;;;;;;;;5041289;28;20045;-74
2021/12/22 09:38:03;;;;;;;23.50;9.80;;;;;;;;;;5043836;28;20032;-74
2021/12/22 09:40:29;;;;;;;26.77;9.25;;;;;;;;;;5062171;28;20025;-74
2021/12/22 09:42:55;;;;;;;23.17;9.27;;;;;;;;;;5051826;28;20144;-74
2021/12/22 09:45:23;;;;;;;27.23;11.20;;;;;;;;;;5049469;28;20067;-74
2021/12/22 09:50:39;;;;;;;25.73;10.27;;;;;;;;;;5038537;28;20047;-74
2021/12/22 09:53:05;;;;;;;27.85;11.88;;;;;;;;;;5025675;28;20223;-74
2021/12/22 09:55:33;;;;;;;23.33;9.80;;;;;;;;;;5038340;28;20554;-74
2021/12/22 09:58:00;;;;;;;21.88;9.50;;;;;;;;;;5029552;28;20076;-73
2021/12/22 10:00:26;;;;;;;21.02;9.63;;;;;;;;;;5036775;28;20036;-74
2021/12/22 10:02:51;;;;;;;21.77;9.48;;;;;;;;;;5032242;28;20431;-74
2021/12/22 10:05:16;;;;;;;20.70;7.93;;;;;;;;;;5033898;28;20071;-75
2021/12/22 10:07:44;;;;;;;19.52;8.32;;;;;;;;;;5037382;28;20033;-75
2021/12/22 10:10:11;;;;;;;19.67;8.35;;;;;;;;;;5030503;28;20038;-74
2021/12/22 10:12:36;;;;;;;17.58;8.73;;;;;;;;;;5032024;28;20457;-75
2021/12/22 10:15:05;;;;;;;21.90;9.25;;;;;;;;;;5041341;28;20037;-75
2021/12/22 10:17:44;;;;;;;17.45;8.57;;;;;;;;;;5032644;28;20130;-73
2021/12/22 10:20:13;;;;;;;26.23;9.50;;;;;;;;;;5031108;28;20021;-69
2021/12/22 10:22:41;;;;;;;22.05;9.30;;;;;;;;;;5037909;28;20032;-79
2021/12/22 10:25:11;;;;;;;23.63;9.73;;;;;;;;;;5034822;28;20116;-79
2021/12/22 10:27:39;;;;;;;25.95;9.43;;;;;;;;;;5020021;28;20049;-79
2021/12/22 10:30:20;;;;;;;23.58;8.70;;;;;;;;;;5034238;28;20049;-76
2021/12/22 10:32:45;;;;;;;23.60;8.50;;;;;;;;;;5030512;28;20037;-75
2021/12/22 10:35:11;;;;;;;23.33;9.18;;;;;;;;;;5030864;28;20035;-75
2021/12/22 10:37:38;;;;;;;26.00;8.27;;;;;;;;;;5026430;28;20048;-77
2021/12/22 10:40:23;;;;;;;24.60;8.38;;;;;;;;;;5031619;28;20036;-75
2021/12/22 10:42:49;;;;;;;18.48;7.85;;;;;;;;;;5030115;28;20098;-73
2021/12/22 10:45:16;;;;;;;22.98;8.32;;;;;;;;;;5035427;28;20613;-79
2021/12/22 10:50:33;;;;;;;21.88;8.63;;;;;;;;;;5033340;28;20098;-78
2021/12/22 10:52:58;;;;;;;20.52;7.85;;;;;;;;;;5041925;28;20033;-76
2021/12/22 10:55:24;;;;;;;21.80;9.52;;;;;;;;;;5014058;28;20083;-78
2021/12/22 10:57:49;;;;;;;22.05;8.40;;;;;;;;;;5034556;28;20029;-76
2021/12/22 11:00:21;;;;;;;19.80;7.82;;;;;;;;;;5037842;28;20041;-78
2021/12/22 11:03:07;;;;;;;29.05;9.98;;;;;;;;;;5014434;28;20029;-72
2021/12/22 11:05:49;;;;;;;30.75;10.73;;;;;;;;;;5035656;28;20088;-71
2021/12/22 11:08:26;;;;;;;36.45;12.30;;;;;;;;;;5029379;28;20514;-71
2021/12/22 11:10:52;;;;;;;41.47;13.98;;;;;;;;;;5035324;28;20032;-73
2021/12/22 11:13:24;;;;;;;49.95;17.05;;;;;;;;;;5041262;28;20040;-78
2021/12/22 11:15:50;;;;;;;65.00;21.70;;;;;;;;;;5016250;28;20045;-78
2021/12/22 11:18:26;;;;;;;73.53;23.15;;;;;;;;;;5036973;28;20051;-78
2021/12/22 11:21:27;;;;;;;78.38;23.42;;;;;;;;;;5039715;28;20044;-79
2021/12/22 11:23:53;;;;;;;76.80;24.15;;;;;;;;;;5037592;28;20804;-77
2021/12/22 11:26:18;;;;;;;85.28;26.08;;;;;;;;;;5036662;28;20570;-79
2021/12/22 11:28:44;;;;;;;81.30;24.17;;;;;;;;;;5041120;28;20037;-78
2021/12/22 11:31:10;;;;;;;71.35;20.60;;;;;;;;;;5037221;28;20037;-78
2021/12/22 11:33:39;;;;;;;91.25;28.48;;;;;;;;;;5037182;28;20457;-78
2021/12/22 11:36:06;;;;;;;78.15;23.42;;;;;;;;;;5038026;28;20044;-79
2021/12/22 11:38:33;;;;;;;74.57;23.77;;;;;;;;;;5014517;28;20041;-79
2021/12/22 11:41:15;;;;;;;77.65;23.00;;;;;;;;;;5038002;28;20033;-79
2021/12/22 11:43:43;;;;;;;83.07;25.70;;;;;;;;;;5038420;28;20070;-79
2021/12/22 11:46:09;;;;;;;81.75;24.40;;;;;;;;;;5022959;28;20049;-78
2021/12/22 11:48:36;;;;;;;83.53;25.38;;;;;;;;;;5026642;28;20063;-79
2021/12/22 11:51:21;;;;;;;92.10;28.23;;;;;;;;;;5027825;28;20048;-74
2021/12/22 11:54:15;;;;;;;83.35;26.95;;;;;;;;;;5008200;28;20091;-75
2021/12/22 11:56:50;;;;;;;57.80;17.27;;;;;;;;;;5037021;28;20120;-73
2021/12/22 11:59:28;;;;;;;76.97;22.75;;;;;;;;;;5025790;28;20532;-73
2021/12/22 12:02:16;;;;;;;99.78;27.75;;;;;;;;;;5034236;28;20067;-75
2021/12/22 12:04:42;;;;;;;97.43;29.30;;;;;;;;;;5041229;28;20525;-82
2021/12/22 12:07:07;;;;;;;89.43;27.38;;;;;;;;;;5035859;28;20041;-79
2021/12/22 12:09:33;;;;;;;92.65;29.25;;;;;;;;;;5039657;28;20084;-76
2021/12/22 12:11:59;;;;;;;85.78;26.20;;;;;;;;;;5041974;28;20418;-77
2021/12/22 12:14:32;;;;;;;96.40;29.48;;;;;;;;;;5038470;28;20033;-78
2021/12/22 12:23:33;;;;;;;98.93;28.83;;;;;;;;;;5049200;28;20094;-75
2021/12/22 12:26:04;;;;;;;73.68;24.23;;;;;;;;;;5030562;28;20017;-78
2021/12/22 12:28:30;;;;;;;84.93;27.77;;;;;;;;;;5029761;28;20044;-75
2021/12/22 12:30:58;;;;;;;88.30;26.10;;;;;;;;;;5040801;28;20029;-78
2021/12/22 12:33:36;;;;;;;77.72;24.42;;;;;;;;;;5042588;28;20028;-75
2021/12/22 12:36:11;;;;;;;71.65;23.77;;;;;;;;;;5038482;28;20545;-79
2021/12/22 12:38:39;;;;;;;62.58;20.40;;;;;;;;;;5035294;28;20052;-79
2021/12/22 12:41:13;;;;;;;71.38;21.38;;;;;;;;;;5029966;28;20074;-77
2021/12/22 12:43:46;;;;;;;57.53;19.95;;;;;;;;;;5029082;28;20083;-80
2021/12/22 12:46:24;;;;;;;43.75;15.38;;;;;;;;;;5043219;28;20056;-74
2021/12/22 12:48:52;;;;;;;40.92;14.43;;;;;;;;;;5057665;28;20125;-76
2021/12/22 12:51:30;;;;;;;38.63;13.20;;;;;;;;;;5059568;28;20036;-77
2021/12/22 12:54:01;;;;;;;44.08;12.98;;;;;;;;;;5061389;28;20115;-75
2021/12/22 12:56:37;;;;;;;35.05;11.63;;;;;;;;;;5057334;28;20033;-76
2021/12/22 12:59:09;;;;;;;24.30;10.90;;;;;;;;;;5055961;28;20150;-76
2021/12/22 13:01:52;;;;;;;20.55;9.63;;;;;;;;;;5034600;28;20029;-74
2021/12/22 13:04:31;;;;;;;18.88;8.77;;;;;;;;;;5049811;28;20044;-74
2021/12/22 13:06:59;;;;;;;24.00;8.95;;;;;;;;;;5036314;28;20041;-73
2021/12/22 13:09:31;;;;;;;20.17;8.18;;;;;;;;;;5028549;28;20820;-81
2021/12/22 13:12:10;;;;;;;22.05;9.00;;;;;;;;;;5031158;28;20036;-76
2021/12/22 13:17:29;;;;;;;20.75;8.95;;;;;;;;;;5055346;28;20043;-76
2021/12/22 13:19:56;;;;;;;20.73;8.90;;;;;;;;;;5051870;28;20056;-79
2021/12/22 13:22:27;;;;;;;24.58;10.82;;;;;;;;;;5035378;28;20645;-76
2021/12/22 13:25:18;;;;;;;30.27;10.35;;;;;;;;;;5050750;28;20064;-81
2021/12/22 13:27:49;;;;;;;19.58;8.55;;;;;;;;;;5047993;28;20872;-80
2021/12/22 13:30:21;;;;;;;22.80;9.45;;;;;;;;;;5041132;28;20037;-73
2021/12/22 13:33:06;;;;;;;24.17;9.80;;;;;;;;;;5037802;28;20120;-77
2021/12/22 13:35:49;;;;;;;23.08;9.77;;;;;;;;;;5037788;28;20045;-80
2021/12/22 13:38:20;;;;;;;26.53;10.23;;;;;;;;;;5035487;28;20453;-76
2021/12/22 13:40:55;;;;;;;20.80;8.45;;;;;;;;;;5024502;28;20561;-74
2021/12/22 13:43:27;;;;;;;22.30;9.70;;;;;;;;;;5027937;28;20127;-75
2021/12/22 13:46:15;;;;;;;22.67;9.85;;;;;;;;;;5037095;28;20099;-74
2021/12/22 13:51:47;;;;;;;17.63;7.63;;;;;;;;;;5038148;28;20128;-74
2021/12/22 13:54:19;;;;;;;19.63;8.90;;;;;;;;;;5037924;28;20561;-74
2021/12/22 13:56:46;;;;;;;21.83;8.77;;;;;;;;;;5024278;28;20034;-79
2021/12/22 13:59:13;;;;;;;17.05;7.47;;;;;;;;;;5034975;28;20025;-76
2021/12/22 14:01:53;;;;;;;22.75;9.50;;;;;;;;;;5034697;28;20110;-76
2021/12/22 14:04:31;;;;;;;15.80;7.97;;;;;;;;;;5042441;28;20048;-76
2021/12/22 14:07:05;;;;;;;18.27;8.10;;;;;;;;;;5055350;28;20045;-76
2021/12/22 14:09:31;;;;;;;25.02;9.13;;;;;;;;;;5033188;28;20048;-75
2021/12/22 14:12:10;;;;;;;18.08;8.35;;;;;;;;;;5025456;28;20038;-79
2021/12/22 14:14:37;;;;;;;16.42;8.30;;;;;;;;;;5031259;28;20046;-78
2021/12/22 14:17:03;;;;;;;22.02;8.75;;;;;;;;;;5056674;28;20046;-78
2021/12/22 14:19:33;;;;;;;19.33;8.27;;;;;;;;;;5057408;28;20109;-78
2021/12/22 14:22:12;;;;;;;22.80;8.73;;;;;;;;;;5044282;28;20045;-76
2021/12/22 14:25:00;;;;;;;30.50;10.88;;;;;;;;;;5039805;28;20048;-76
2021/12/22 14:27:35;;;;;;;23.63;9.73;;;;;;;;;;5033994;28;20072;-76
2021/12/22 14:30:03;;;;;;;25.98;10.80;;;;;;;;;;5045157;28;20036;-75
2021/12/22 14:32:34;;;;;;;25.55;10.13;;;;;;;;;;5038985;28;20053;-74
2021/12/22 14:35:08;;;;;;;24.02;10.93;;;;;;;;;;5026720;28;20040;-75
2021/12/22 14:37:34;;;;;;;24.10;10.88;;;;;;;;;;5021428;28;20519;-76
2021/12/22 14:40:00;;;;;;;25.92;11.00;;;;;;;;;;5046657;28;20983;-76
2021/12/22 14:42:29;;;;;;;23.45;10.73;;;;;;;;;;5068993;28;20040;-76
2021/12/22 14:45:27;;;;;;;24.27;10.57;;;;;;;;;;5050021;28;20713;-77
2021/12/22 14:48:12;;;;;;;23.85;10.23;;;;;;;;;;5049048;28;20090;-76
2021/12/22 14:50:41;;;;;;;29.05;9.60;;;;;;;;;;5040659;28;20045;-76
2021/12/22 14:53:10;;;;;;;27.08;11.27;;;;;;;;;;5046316;28;20032;-75
2021/12/22 14:55:46;;;;;;;25.08;10.15;;;;;;;;;;5040699;28;20095;-76
2021/12/22 14:58:13;;;;;;;25.55;10.63;;;;;;;;;;5038683;28;20163;-75
2021/12/22 15:00:40;;;;;;;23.85;10.25;;;;;;;;;;5034254;28;20037;-75
2021/12/22 15:03:06;;;;;;;21.40;10.30;;;;;;;;;;5033580;28;20110;-73
2021/12/22 15:05:32;;;;;;;26.70;11.90;;;;;;;;;;5036930;28;20128;-80